Time;durP1;ratioP1;P1;durP2;ratioP2;P2;SDS_P1;SDS_P2;PMS_P1;PMS_P2;Temp;Humidity;BMP_temperature;BMP_pressure;BME280_temperature;BME280_humidity;BME280_pressure;Samples;Min_cycle;Max_cycle;Signal;HPM_P1;HPM_P2
2022/04/04 00:00:22;;;;;;;4.28;1.48;;;;;;;;;;5079152;28;20707;-16
2022/04/04 00:02:49;;;;;;;7.88;1.60;;;;;;;;;;5081687;28;20234;-16
2022/04/04 00:05:16;;;;;;;7.28;1.30;;;;;;;;;;5079739;28;20240;-16
2022/04/04 00:07:44;;;;;;;4.93;1.30;;;;;;;;;;5082675;28;20315;-16
2022/04/04 00:10:12;;;;;;;2.08;1.38;;;;;;;;;;5081082;28;20233;-16
2022/04/04 00:12:41;;;;;;;7.38;1.27;;;;;;;;;;5078089;28;20238;-16
2022/04/04 00:15:08;;;;;;;2.53;1.35;;;;;;;;;;5083361;28;20240;-16
2022/04/04 00:17:36;;;;;;;7.05;1.77;;;;;;;;;;5076127;28;20226;-16
2022/04/04 00:20:04;;;;;;;2.33;1.63;;;;;;;;;;5080101;28;20233;-16
2022/04/04 00:22:32;;;;;;;3.22;1.63;;;;;;;;;;5075113;28;20328;-16
2022/04/04 00:24:59;;;;;;;2.97;1.50;;;;;;;;;;5071115;28;20739;-16
2022/04/04 00:27:26;;;;;;;3.08;1.70;;;;;;;;;;5071766;28;20251;-16
2022/04/04 00:29:55;;;;;;;3.47;1.50;;;;;;;;;;5071132;28;20708;-16
2022/04/04 00:32:22;;;;;;;6.18;2.15;;;;;;;;;;5071642;28;20240;-16
2022/04/04 00:34:50;;;;;;;5.30;1.63;;;;;;;;;;5071189;28;21051;-16
2022/04/04 00:37:17;;;;;;;4.43;1.60;;;;;;;;;;5071127;28;20225;-16
2022/04/04 00:39:44;;;;;;;2.13;1.33;;;;;;;;;;5071688;28;20727;-16
2022/04/04 00:42:14;;;;;;;1.65;1.40;;;;;;;;;;5071738;28;20700;-17
2022/04/04 00:44:42;;;;;;;2.00;1.52;;;;;;;;;;5074498;28;20823;-16
2022/04/04 00:47:10;;;;;;;2.75;1.58;;;;;;;;;;5071185;28;20769;-16
2022/04/04 00:49:38;;;;;;;3.92;1.50;;;;;;;;;;5071708;28;20229;-16
2022/04/04 00:52:06;;;;;;;2.30;1.50;;;;;;;;;;5068168;28;20325;-16
2022/04/04 00:54:33;;;;;;;2.67;1.80;;;;;;;;;;5067104;28;21023;-16
2022/04/04 00:57:01;;;;;;;1.70;1.45;;;;;;;;;;5071018;28;20228;-16
2022/04/04 00:59:29;;;;;;;3.50;1.58;;;;;;;;;;5071099;28;20237;-16
2022/04/04 01:01:56;;;;;;;2.42;1.13;;;;;;;;;;5067610;28;20232;-16
2022/04/04 01:04:25;;;;;;;2.60;1.50;;;;;;;;;;5071243;28;20236;-16
2022/04/04 01:06:53;;;;;;;5.85;1.40;;;;;;;;;;5070560;28;20245;-16
2022/04/04 01:09:20;;;;;;;2.38;1.27;;;;;;;;;;5071040;28;20230;-16
2022/04/04 01:12:03;;;;;;;3.58;1.20;;;;;;;;;;5071164;28;20229;-16
2022/04/04 01:14:31;;;;;;;2.50;1.55;;;;;;;;;;5071680;28;20229;-16
2022/04/04 01:16:58;;;;;;;2.70;1.30;;;;;;;;;;5071783;28;20231;-16
2022/04/04 01:19:27;;;;;;;1.98;1.30;;;;;;;;;;5066936;28;20240;-16
2022/04/04 01:21:54;;;;;;;2.70;1.60;;;;;;;;;;5073724;28;20243;-16
2022/04/04 01:24:23;;;;;;;2.90;1.40;;;;;;;;;;5076697;28;20996;-16
2022/04/04 01:26:50;;;;;;;4.78;1.48;;;;;;;;;;5079218;28;20237;-16
2022/04/04 01:29:17;;;;;;;2.60;1.27;;;;;;;;;;5079152;28;20231;-16
2022/04/04 01:31:45;;;;;;;2.15;1.25;;;;;;;;;;5082919;28;20232;-16
2022/04/04 01:34:12;;;;;;;3.80;1.52;;;;;;;;;;5079629;28;20237;-17
2022/04/04 01:36:40;;;;;;;2.20;1.30;;;;;;;;;;5082919;28;20232;-18
2022/04/04 01:39:07;;;;;;;6.72;1.30;;;;;;;;;;5078679;28;20357;-16
2022/04/04 01:41:36;;;;;;;3.38;1.50;;;;;;;;;;5078228;28;20229;-16
2022/04/04 01:44:03;;;;;;;2.38;1.50;;;;;;;;;;5073899;28;20235;-16
2022/04/04 01:46:31;;;;;;;2.72;1.70;;;;;;;;;;5081956;28;20239;-16
2022/04/04 01:49:00;;;;;;;1.50;1.30;;;;;;;;;;5085707;28;20229;-16
2022/04/04 01:51:28;;;;;;;3.80;1.42;;;;;;;;;;5081755;28;20691;-16
2022/04/04 01:53:55;;;;;;;2.35;1.35;;;;;;;;;;5085239;28;20696;-17
2022/04/04 01:56:22;;;;;;;2.38;1.70;;;;;;;;;;5084106;28;20307;-16
2022/04/04 01:58:51;;;;;;;3.17;1.65;;;;;;;;;;5087070;28;20229;-16
2022/04/04 02:01:19;;;;;;;2.20;1.50;;;;;;;;;;5081536;28;20229;-16
2022/04/04 02:03:47;;;;;;;2.75;1.80;;;;;;;;;;5084429;28;20221;-17
2022/04/04 02:06:14;;;;;;;3.00;1.70;;;;;;;;;;5086345;28;20267;-16
2022/04/04 02:08:42;;;;;;;2.72;1.80;;;;;;;;;;5082920;28;20240;-16
2022/04/04 02:11:10;;;;;;;2.03;1.77;;;;;;;;;;5085465;28;20224;-16
2022/04/04 02:13:37;;;;;;;2.55;1.70;;;;;;;;;;5081531;28;20620;-16
2022/04/04 02:16:06;;;;;;;4.97;1.80;;;;;;;;;;5077115;28;20239;-16
2022/04/04 02:18:34;;;;;;;2.60;1.95;;;;;;;;;;5085620;28;20226;-17
2022/04/04 02:21:02;;;;;;;3.67;2.17;;;;;;;;;;5113041;22;20253;-14
2022/04/04 02:23:29;;;;;;;2.42;1.60;;;;;;;;;;5121908;27;20227;-14
2022/04/04 02:25:56;;;;;;;2.55;1.88;;;;;;;;;;5126630;27;20232;-14
2022/04/04 02:28:24;;;;;;;2.45;1.70;;;;;;;;;;5122903;27;20240;-14
2022/04/04 02:30:51;;;;;;;3.15;1.77;;;;;;;;;;5128107;27;20239;-14
2022/04/04 02:33:20;;;;;;;4.32;2.08;;;;;;;;;;5125232;27;20254;-14
2022/04/04 02:35:50;;;;;;;3.97;1.90;;;;;;;;;;5121131;27;20302;-14
2022/04/04 02:38:17;;;;;;;2.85;1.83;;;;;;;;;;5123992;27;20582;-14
2022/04/04 02:40:45;;;;;;;2.92;1.80;;;;;;;;;;5123442;27;20239;-14
2022/04/04 02:43:12;;;;;;;3.50;1.95;;;;;;;;;;5125851;27;20693;-14
2022/04/04 02:45:39;;;;;;;4.03;1.95;;;;;;;;;;5121371;27;20232;-14
2022/04/04 02:48:07;;;;;;;3.55;1.90;;;;;;;;;;5126213;27;20350;-14
2022/04/04 02:50:36;;;;;;;2.83;2.10;;;;;;;;;;5126379;27;20231;-14
2022/04/04 02:53:03;;;;;;;2.55;1.80;;;;;;;;;;5118107;27;20238;-14
2022/04/04 02:58:15;;;;;;;3.45;2.10;;;;;;;;;;5120003;27;20708;-14
2022/04/04 03:00:43;;;;;;;4.28;2.13;;;;;;;;;;5125356;27;20242;-14
2022/04/04 03:03:10;;;;;;;3.10;1.95;;;;;;;;;;5123436;27;20228;-14
2022/04/04 03:05:39;;;;;;;3.00;1.67;;;;;;;;;;5125195;27;20236;-14
2022/04/04 03:08:06;;;;;;;1.95;1.75;;;;;;;;;;5117818;27;20239;-14
2022/04/04 03:10:34;;;;;;;2.72;1.80;;;;;;;;;;5117957;27;20813;-13
2022/04/04 03:13:02;;;;;;;2.83;1.92;;;;;;;;;;5125585;27;20243;-14
2022/04/04 03:15:29;;;;;;;2.45;1.90;;;;;;;;;;5125038;27;20991;-14
2022/04/04 03:17:57;;;;;;;3.38;2.15;;;;;;;;;;5123145;27;20223;-14
2022/04/04 03:20:25;;;;;;;2.47;1.80;;;;;;;;;;5121263;27;20259;-14
2022/04/04 03:22:54;;;;;;;2.75;1.63;;;;;;;;;;5123772;27;20242;-14
2022/04/04 03:25:22;;;;;;;2.55;1.95;;;;;;;;;;5123308;27;20354;-14
2022/04/04 03:27:49;;;;;;;4.25;1.70;;;;;;;;;;5123139;27;20232;-14
2022/04/04 03:30:18;;;;;;;3.50;1.77;;;;;;;;;;5119798;27;20238;-14
2022/04/04 03:32:45;;;;;;;2.40;1.98;;;;;;;;;;5124786;27;20258;-14
2022/04/04 03:35:14;;;;;;;4.28;2.40;;;;;;;;;;5124714;27;20227;-14
2022/04/04 03:37:42;;;;;;;3.85;2.00;;;;;;;;;;5122411;27;20231;-14
2022/04/04 03:40:12;;;;;;;3.08;2.10;;;;;;;;;;5123939;27;20238;-14
2022/04/04 03:42:39;;;;;;;4.32;2.17;;;;;;;;;;5124668;27;20231;-14
2022/04/04 03:45:07;;;;;;;2.75;2.10;;;;;;;;;;5121144;27;20992;-14
2022/04/04 03:47:34;;;;;;;4.53;2.30;;;;;;;;;;5121598;27;20239;-14
2022/04/04 03:50:02;;;;;;;3.00;1.90;;;;;;;;;;5123628;27;20226;-14
2022/04/04 03:52:29;;;;;;;4.38;2.28;;;;;;;;;;5121514;27;20238;-14
2022/04/04 03:54:57;;;;;;;2.67;2.30;;;;;;;;;;5124563;27;20951;-14
2022/04/04 03:57:25;;;;;;;5.07;2.55;;;;;;;;;;5122935;27;20683;-14
2022/04/04 03:59:53;;;;;;;3.70;2.70;;;;;;;;;;5123915;27;20296;-14
2022/04/04 04:02:20;;;;;;;3.08;2.50;;;;;;;;;;5121854;27;20702;-14
2022/04/04 04:04:48;;;;;;;4.03;2.30;;;;;;;;;;5121497;27;20228;-14
2022/04/04 04:07:16;;;;;;;3.40;2.53;;;;;;;;;;5120756;27;20228;-14
2022/04/04 04:09:43;;;;;;;5.05;2.70;;;;;;;;;;5124534;27;20247;-14
2022/04/04 04:12:11;;;;;;;2.67;2.22;;;;;;;;;;5121960;27;20228;-14
2022/04/04 04:14:40;;;;;;;4.30;2.30;;;;;;;;;;5119920;27;20976;-14
2022/04/04 04:17:08;;;;;;;3.90;2.50;;;;;;;;;;5124353;27;20702;-14
2022/04/04 04:22:21;;;;;;;4.72;2.50;;;;;;;;;;5121888;27;20770;-14
2022/04/04 04:24:49;;;;;;;5.65;2.90;;;;;;;;;;5120454;27;20236;-14
2022/04/04 04:27:16;;;;;;;3.28;2.45;;;;;;;;;;5123160;27;20235;-14
2022/04/04 04:29:45;;;;;;;4.57;2.70;;;;;;;;;;5121614;27;20254;-14
2022/04/04 04:32:13;;;;;;;3.50;2.30;;;;;;;;;;5123946;27;20263;-14
2022/04/04 04:34:45;;;;;;;5.82;2.63;;;;;;;;;;5123860;27;20228;-14
2022/04/04 04:37:12;;;;;;;3.53;2.60;;;;;;;;;;5119981;27;20230;-14
2022/04/04 04:39:40;;;;;;;5.20;2.75;;;;;;;;;;5120826;27;20323;-14
2022/04/04 04:42:07;;;;;;;4.90;2.45;;;;;;;;;;5124243;27;20701;-14
2022/04/04 04:44:35;;;;;;;5.65;2.65;;;;;;;;;;5116828;27;20232;-16
2022/04/04 04:47:04;;;;;;;4.43;2.33;;;;;;;;;;5122697;27;20689;-16
2022/04/04 04:49:32;;;;;;;4.00;2.50;;;;;;;;;;5119474;27;20338;-16
2022/04/04 04:52:00;;;;;;;3.85;2.05;;;;;;;;;;5121549;27;20232;-14
2022/04/04 04:54:27;;;;;;;5.03;2.28;;;;;;;;;;5120269;27;20714;-14
2022/04/04 04:56:54;;;;;;;4.15;2.22;;;;;;;;;;5122693;27;20223;-14
2022/04/04 04:59:22;;;;;;;2.83;2.03;;;;;;;;;;5121355;27;20235;-14
2022/04/04 05:01:49;;;;;;;3.00;2.10;;;;;;;;;;5121258;27;20239;-14
2022/04/04 05:04:18;;;;;;;3.50;2.10;;;;;;;;;;5122599;27;20228;-14
2022/04/04 05:06:48;;;;;;;3.45;2.28;;;;;;;;;;5121465;27;20706;-14
2022/04/04 05:09:16;;;;;;;3.53;2.10;;;;;;;;;;5120776;27;20245;-14
2022/04/04 05:11:43;;;;;;;2.97;2.03;;;;;;;;;;5120892;27;20231;-14
2022/04/04 05:14:15;;;;;;;4.22;2.40;;;;;;;;;;5120714;27;20239;-14
2022/04/04 05:16:45;;;;;;;4.03;2.30;;;;;;;;;;5122836;27;20322;-14
2022/04/04 05:19:13;;;;;;;3.72;2.28;;;;;;;;;;5119686;27;20227;-14
2022/04/04 05:21:41;;;;;;;3.35;2.40;;;;;;;;;;5113385;27;20244;-14
2022/04/04 05:24:10;;;;;;;5.40;2.63;;;;;;;;;;5107057;27;20312;-14
2022/04/04 05:26:37;;;;;;;4.45;2.80;;;;;;;;;;5112271;27;20240;-16
2022/04/04 05:29:05;;;;;;;4.85;3.03;;;;;;;;;;5107625;27;20234;-14
2022/04/04 05:31:32;;;;;;;7.60;2.72;;;;;;;;;;5111889;27;20713;-14
2022/04/04 05:34:01;;;;;;;4.13;2.67;;;;;;;;;;5107807;27;20310;-14
2022/04/04 05:36:28;;;;;;;4.07;2.33;;;;;;;;;;5106177;27;20235;-14
2022/04/04 05:38:58;;;;;;;5.13;2.65;;;;;;;;;;5103552;27;20239;-14
2022/04/04 05:41:27;;;;;;;5.30;2.60;;;;;;;;;;5107705;27;20757;-14
2022/04/04 05:43:55;;;;;;;3.20;2.33;;;;;;;;;;5120034;27;20235;-14
2022/04/04 05:46:22;;;;;;;2.85;2.22;;;;;;;;;;5122078;27;20317;-13
2022/04/04 05:48:50;;;;;;;4.07;2.88;;;;;;;;;;5121669;27;20272;-14
2022/04/04 05:51:18;;;;;;;3.47;2.67;;;;;;;;;;5121069;27;20703;-14
2022/04/04 05:53:46;;;;;;;3.03;2.72;;;;;;;;;;5118152;27;20231;-14
2022/04/04 05:56:15;;;;;;;4.00;2.75;;;;;;;;;;5120874;27;20232;-14
2022/04/04 05:58:43;;;;;;;4.25;2.88;;;;;;;;;;5122198;27;20729;-14
2022/04/04 06:01:10;;;;;;;5.32;2.65;;;;;;;;;;5120023;27;20255;-16
2022/04/04 06:03:37;;;;;;;4.43;2.97;;;;;;;;;;5118299;27;20230;-14
2022/04/04 06:06:05;;;;;;;4.57;2.72;;;;;;;;;;5115493;27;20239;-14
2022/04/04 06:08:33;;;;;;;5.28;2.38;;;;;;;;;;5123127;27;20271;-14
2022/04/04 06:11:00;;;;;;;5.82;2.63;;;;;;;;;;5119932;27;20228;-14
2022/04/04 06:13:29;;;;;;;3.35;2.88;;;;;;;;;;5122101;27;20726;-14
2022/04/04 06:15:56;;;;;;;5.15;2.83;;;;;;;;;;5119048;27;20258;-16
2022/04/04 06:18:24;;;;;;;5.05;2.50;;;;;;;;;;5121573;27;20225;-14
2022/04/04 06:20:51;;;;;;;3.70;2.20;;;;;;;;;;5121642;27;20702;-14
2022/04/04 06:23:18;;;;;;;4.68;2.30;;;;;;;;;;5120626;27;20219;-14
2022/04/04 06:25:49;;;;;;;4.32;2.22;;;;;;;;;;5119483;27;20235;-14
2022/04/04 06:28:16;;;;;;;5.05;2.70;;;;;;;;;;5123369;27;20994;-16
2022/04/04 06:30:45;;;;;;;5.00;2.83;;;;;;;;;;5122926;27;20271;-14
2022/04/04 06:33:13;;;;;;;4.80;2.67;;;;;;;;;;5120576;27;20736;-14
2022/04/04 06:35:40;;;;;;;4.28;2.75;;;;;;;;;;5121496;27;20612;-14
2022/04/04 06:38:08;;;;;;;3.63;2.78;;;;;;;;;;5117266;27;20734;-14
2022/04/04 06:40:36;;;;;;;2.92;2.30;;;;;;;;;;5118254;27;20666;-14
2022/04/04 06:43:03;;;;;;;4.10;2.30;;;;;;;;;;5120755;27;20227;-14
2022/04/04 06:45:30;;;;;;;3.42;2.30;;;;;;;;;;5121756;27;20231;-14
2022/04/04 06:47:59;;;;;;;5.53;3.13;;;;;;;;;;5117322;27;20232;-16
2022/04/04 06:50:26;;;;;;;4.20;2.70;;;;;;;;;;5122130;27;20232;-14
2022/04/04 06:52:54;;;;;;;4.30;2.45;;;;;;;;;;5120010;27;20359;-14
2022/04/04 06:55:42;;;;;;;4.82;2.70;;;;;;;;;;5119899;27;20284;-14
2022/04/04 06:58:09;;;;;;;3.30;2.45;;;;;;;;;;5119998;27;20266;-14
2022/04/04 07:00:36;;;;;;;3.10;2.38;;;;;;;;;;5118151;27;20235;-14
2022/04/04 07:03:08;;;;;;;6.53;2.60;;;;;;;;;;5119713;27;20686;-14
2022/04/04 07:05:36;;;;;;;4.25;2.40;;;;;;;;;;5118464;27;20235;-14
2022/04/04 07:08:04;;;;;;;5.28;2.10;;;;;;;;;;5119348;27;20938;-14
2022/04/04 07:10:32;;;;;;;4.50;2.45;;;;;;;;;;5120095;27;20238;-14
2022/04/04 07:13:00;;;;;;;3.38;2.28;;;;;;;;;;5121094;27;20238;-14
2022/04/04 07:15:28;;;;;;;3.88;2.15;;;;;;;;;;5122907;27;20228;-14
2022/04/04 07:17:55;;;;;;;4.47;3.03;;;;;;;;;;5121257;27;20220;-14
2022/04/04 07:20:24;;;;;;;7.80;2.75;;;;;;;;;;5119799;27;20232;-14
2022/04/04 07:22:51;;;;;;;13.07;3.40;;;;;;;;;;5113885;27;20319;-14
2022/04/04 07:25:21;;;;;;;18.88;3.08;;;;;;;;;;5113403;27;20279;-14
2022/04/04 07:27:49;;;;;;;28.38;4.00;;;;;;;;;;5109250;28;21083;-14
2022/04/04 07:30:17;;;;;;;31.33;4.10;;;;;;;;;;5112179;27;20411;-14
2022/04/04 07:32:45;;;;;;;20.98;3.60;;;;;;;;;;5112011;27;20309;-14
2022/04/04 07:35:12;;;;;;;10.20;3.30;;;;;;;;;;5113092;27;20729;-14
2022/04/04 07:37:41;;;;;;;11.63;3.30;;;;;;;;;;5112516;27;21072;-14
2022/04/04 07:40:10;;;;;;;13.85;3.03;;;;;;;;;;5113268;27;20236;-14
2022/04/04 07:42:38;;;;;;;6.00;2.55;;;;;;;;;;5110136;28;21024;-15
2022/04/04 07:45:06;;;;;;;8.10;3.03;;;;;;;;;;5112404;28;20313;-15
2022/04/04 07:47:33;;;;;;;10.93;3.03;;;;;;;;;;5111802;28;20438;-15
2022/04/04 07:50:00;;;;;;;8.63;3.15;;;;;;;;;;5112031;27;20246;-15
2022/04/04 07:52:28;;;;;;;6.03;3.03;;;;;;;;;;5111208;27;20238;-15
2022/04/04 07:54:56;;;;;;;6.60;2.95;;;;;;;;;;5106766;27;20228;-15
2022/04/04 07:57:24;;;;;;;6.93;2.92;;;;;;;;;;5111673;28;20220;-15
2022/04/04 07:59:51;;;;;;;5.97;3.15;;;;;;;;;;5111406;27;20228;-14
2022/04/04 08:02:19;;;;;;;4.93;2.70;;;;;;;;;;5110697;27;20282;-15
2022/04/04 08:04:46;;;;;;;6.63;2.50;;;;;;;;;;5112103;27;21005;-15
2022/04/04 08:07:15;;;;;;;5.10;2.65;;;;;;;;;;5112581;27;20266;-15
2022/04/04 08:09:42;;;;;;;7.35;2.38;;;;;;;;;;5112721;27;20252;-15
2022/04/04 08:12:11;;;;;;;3.55;2.25;;;;;;;;;;5112510;27;20232;-15
2022/04/04 08:14:39;;;;;;;3.75;2.33;;;;;;;;;;5112282;27;20239;-15
2022/04/04 08:17:06;;;;;;;4.72;2.60;;;;;;;;;;5111681;27;20224;-15
2022/04/04 08:19:35;;;;;;;3.80;2.40;;;;;;;;;;5104329;28;20239;-15
2022/04/04 08:22:02;;;;;;;4.72;2.45;;;;;;;;;;5114646;27;20242;-15
2022/04/04 08:24:30;;;;;;;5.10;2.75;;;;;;;;;;5113056;27;20633;-15
2022/04/04 08:26:58;;;;;;;5.40;3.08;;;;;;;;;;5113627;27;20709;-15
2022/04/04 08:29:26;;;;;;;6.95;2.25;;;;;;;;;;5118450;27;20252;-15
2022/04/04 08:31:54;;;;;;;4.53;2.40;;;;;;;;;;5117894;27;20752;-15
2022/04/04 08:34:21;;;;;;;4.85;2.55;;;;;;;;;;5117207;27;20212;-15
2022/04/04 08:36:49;;;;;;;8.02;2.38;;;;;;;;;;5119178;27;20228;-15
2022/04/04 08:39:16;;;;;;;3.00;2.10;;;;;;;;;;5113200;27;20235;-15
2022/04/04 08:41:43;;;;;;;4.63;2.53;;;;;;;;;;5120219;27;20238;-15
2022/04/04 08:44:11;;;;;;;6.70;2.42;;;;;;;;;;5114729;27;20224;-15
2022/04/04 08:46:39;;;;;;;5.70;2.38;;;;;;;;;;5114137;27;20236;-15
2022/04/04 08:49:07;;;;;;;5.40;2.30;;;;;;;;;;5113933;27;20259;-15
2022/04/04 08:51:34;;;;;;;4.43;2.70;;;;;;;;;;5113116;27;20254;-15
2022/04/04 08:54:02;;;;;;;3.25;2.28;;;;;;;;;;5117735;27;20227;-15
2022/04/04 08:56:29;;;;;;;5.95;2.70;;;;;;;;;;5124501;27;20224;-15
2022/04/04 08:58:57;;;;;;;9.57;2.90;;;;;;;;;;5120945;27;20414;-15
2022/04/04 09:01:24;;;;;;;19.05;3.22;;;;;;;;;;5114228;27;20231;-15
2022/04/04 09:03:54;;;;;;;9.48;3.28;;;;;;;;;;5104954;27;20240;-15
2022/04/04 09:06:21;;;;;;;10.70;3.35;;;;;;;;;;5104971;27;21100;-15
2022/04/04 09:08:50;;;;;;;12.00;3.15;;;;;;;;;;5107958;27;20232;-15
2022/04/04 09:11:18;;;;;;;7.35;2.30;;;;;;;;;;5105929;27;20242;-17
2022/04/04 09:13:45;;;;;;;4.88;3.13;;;;;;;;;;5106723;27;20926;-15
2022/04/04 09:16:13;;;;;;;7.45;2.70;;;;;;;;;;5110072;27;20239;-15
2022/04/04 09:18:45;;;;;;;5.03;2.83;;;;;;;;;;5110219;27;20231;-15
2022/04/04 09:21:14;;;;;;;8.43;2.92;;;;;;;;;;5106931;27;20728;-15
2022/04/04 09:23:55;;;;;;;6.35;3.28;;;;;;;;;;5103385;28;20232;-15
2022/04/04 09:26:26;;;;;;;5.68;2.38;;;;;;;;;;5103086;28;20231;-15
2022/04/04 09:28:53;;;;;;;7.50;3.08;;;;;;;;;;5104515;28;20228;-15
2022/04/04 09:31:21;;;;;;;6.80;3.10;;;;;;;;;;5105402;28;20436;-15
2022/04/04 09:33:48;;;;;;;4.57;3.15;;;;;;;;;;5106282;27;20718;-15
2022/04/04 09:36:17;;;;;;;3.78;2.50;;;;;;;;;;5107055;27;20976;-15
2022/04/04 09:38:44;;;;;;;11.88;3.25;;;;;;;;;;5106662;27;20714;-15
2022/04/04 09:41:19;;;;;;;7.40;2.75;;;;;;;;;;5101705;27;20234;-15
2022/04/04 09:43:50;;;;;;;4.55;2.50;;;;;;;;;;5104670;28;20234;-14
2022/04/04 09:46:19;;;;;;;6.47;2.67;;;;;;;;;;5105035;28;20236;-15
2022/04/04 09:49:05;;;;;;;12.68;3.13;;;;;;;;;;5104512;28;20990;-15
2022/04/04 09:51:37;;;;;;;9.90;3.08;;;;;;;;;;5099894;28;20534;-15
2022/04/04 09:54:05;;;;;;;8.77;2.92;;;;;;;;;;5104562;28;21068;-15
2022/04/04 09:56:33;;;;;;;9.97;3.33;;;;;;;;;;5101968;27;20529;-15
2022/04/04 09:59:00;;;;;;;9.05;3.13;;;;;;;;;;5106860;28;20415;-15
2022/04/04 10:01:28;;;;;;;10.85;3.70;;;;;;;;;;5102057;28;20426;-15
2022/04/04 10:03:56;;;;;;;5.70;2.50;;;;;;;;;;5106543;28;20267;-15
2022/04/04 10:06:24;;;;;;;7.63;3.30;;;;;;;;;;5108221;28;20429;-15
2022/04/04 10:08:54;;;;;;;7.07;2.92;;;;;;;;;;5108327;28;21079;-15
2022/04/04 10:11:21;;;;;;;8.88;3.10;;;;;;;;;;5109714;27;20251;-18
2022/04/04 10:13:49;;;;;;;9.70;3.03;;;;;;;;;;5105520;28;20243;-14
2022/04/04 10:16:16;;;;;;;6.93;3.22;;;;;;;;;;5107722;28;20228;-15
2022/04/04 10:18:44;;;;;;;5.93;2.90;;;;;;;;;;5108407;28;20327;-15
2022/04/04 10:21:11;;;;;;;6.70;2.80;;;;;;;;;;5109511;27;21185;-15
2022/04/04 10:23:38;;;;;;;6.60;2.72;;;;;;;;;;5115186;27;20232;-15
2022/04/04 10:26:07;;;;;;;5.00;2.60;;;;;;;;;;5114472;27;20280;-14
2022/04/04 10:28:35;;;;;;;4.45;2.90;;;;;;;;;;5109860;27;21065;-15
2022/04/04 10:31:10;;;;;;;7.20;2.63;;;;;;;;;;5110660;27;20443;-14
2022/04/04 10:33:38;;;;;;;6.57;2.80;;;;;;;;;;5108331;27;20454;-15
2022/04/04 10:36:06;;;;;;;6.90;3.00;;;;;;;;;;5107330;27;20501;-14
2022/04/04 10:38:34;;;;;;;6.18;2.83;;;;;;;;;;5108668;27;20277;-15
2022/04/04 10:41:01;;;;;;;4.85;2.53;;;;;;;;;;5112329;27;20242;-14
2022/04/04 10:43:32;;;;;;;6.18;2.90;;;;;;;;;;5112415;27;20235;-15
2022/04/04 10:46:01;;;;;;;6.13;3.63;;;;;;;;;;5113622;27;20238;-15
2022/04/04 10:48:30;;;;;;;7.68;2.63;;;;;;;;;;5119655;27;20231;-15
2022/04/04 10:51:01;;;;;;;3.50;2.67;;;;;;;;;;5115445;27;20240;-15
2022/04/04 10:53:35;;;;;;;4.30;3.05;;;;;;;;;;5118654;27;20227;-15
2022/04/04 10:56:03;;;;;;;5.10;2.50;;;;;;;;;;5112969;27;20230;-15
2022/04/04 10:58:32;;;;;;;5.95;2.67;;;;;;;;;;5115483;27;21091;-15
2022/04/04 11:01:00;;;;;;;8.98;2.72;;;;;;;;;;5111438;27;20228;-15
2022/04/04 11:03:31;;;;;;;8.13;2.70;;;;;;;;;;5117015;27;20261;-15
2022/04/04 11:09:08;;;;;;;4.93;3.10;;;;;;;;;;5114512;27;20617;-15
2022/04/04 11:11:44;;;;;;;4.47;2.35;;;;;;;;;;5108106;27;20267;-15
2022/04/04 11:14:12;;;;;;;5.03;2.10;;;;;;;;;;5111100;27;20240;-15
2022/04/04 11:16:58;;;;;;;6.95;2.03;;;;;;;;;;5113991;27;20224;-15
2022/04/04 11:19:28;;;;;;;7.10;2.40;;;;;;;;;;5119514;27;20246;-15
2022/04/04 11:21:55;;;;;;;5.00;2.03;;;;;;;;;;5116320;27;20250;-15
2022/04/04 11:24:23;;;;;;;7.30;2.22;;;;;;;;;;5113829;27;20232;-15
2022/04/04 11:26:50;;;;;;;6.80;2.22;;;;;;;;;;5116624;27;20327;-15
2022/04/04 11:29:47;;;;;;;10.13;2.72;;;;;;;;;;5109613;27;20228;-15
2022/04/04 11:32:31;;;;;;;12.48;3.15;;;;;;;;;;5119014;27;21072;-15
2022/04/04 11:35:07;;;;;;;9.88;2.75;;;;;;;;;;5053692;28;20242;-15
2022/04/04 11:37:40;;;;;;;3.88;2.60;;;;;;;;;;5058791;28;20229;-15
2022/04/04 11:40:13;;;;;;;6.22;3.10;;;;;;;;;;5110536;27;20985;-15
2022/04/04 11:42:41;;;;;;;6.50;2.60;;;;;;;;;;5112902;27;20230;-15
2022/04/04 11:45:09;;;;;;;5.40;2.67;;;;;;;;;;5116942;27;20219;-15
2022/04/04 11:47:39;;;;;;;4.38;2.65;;;;;;;;;;5114720;27;20233;-15
2022/04/04 11:50:23;;;;;;;5.47;2.45;;;;;;;;;;5107901;27;20232;-15
2022/04/04 11:52:53;;;;;;;5.70;2.20;;;;;;;;;;5101892;27;20263;-15
2022/04/04 11:55:20;;;;;;;7.55;2.45;;;;;;;;;;5116641;27;20717;-15
2022/04/04 11:57:51;;;;;;;2.55;1.88;;;;;;;;;;5112069;27;20236;-15
2022/04/04 12:00:21;;;;;;;4.30;2.33;;;;;;;;;;5115218;27;20232;-15
2022/04/04 12:02:48;;;;;;;4.45;2.05;;;;;;;;;;5110900;27;20239;-15
2022/04/04 12:05:37;;;;;;;3.28;2.30;;;;;;;;;;5117791;27;20228;-15
2022/04/04 12:08:06;;;;;;;2.17;1.90;;;;;;;;;;5106153;27;20223;-15
2022/04/04 12:10:35;;;;;;;3.63;2.30;;;;;;;;;;5110213;27;20228;-14
2022/04/04 12:13:03;;;;;;;4.80;2.15;;;;;;;;;;5117695;27;20239;-15
2022/04/04 12:15:31;;;;;;;3.97;2.58;;;;;;;;;;5112878;27;20238;-15
2022/04/04 12:17:59;;;;;;;4.97;2.40;;;;;;;;;;5116512;27;20713;-15
2022/04/04 12:20:26;;;;;;;3.65;2.08;;;;;;;;;;5113015;27;20981;-15
2022/04/04 12:25:39;;;;;;;3.00;2.10;;;;;;;;;;5081353;27;20231;-15
2022/04/04 12:28:07;;;;;;;2.70;1.98;;;;;;;;;;5115651;27;20378;-15
2022/04/04 12:30:35;;;;;;;6.10;2.00;;;;;;;;;;5114053;27;20258;-15
2022/04/04 12:33:09;;;;;;;11.60;2.10;;;;;;;;;;5111519;27;20426;-16
2022/04/04 12:35:41;;;;;;;6.38;2.20;;;;;;;;;;5109478;27;20246;-16
2022/04/04 12:38:08;;;;;;;7.20;2.33;;;;;;;;;;5112459;27;20999;-16
2022/04/04 12:40:37;;;;;;;3.55;1.98;;;;;;;;;;5105972;27;20227;-16
2022/04/04 12:43:11;;;;;;;4.32;2.25;;;;;;;;;;5110087;27;20571;-16
2022/04/04 12:45:45;;;;;;;6.43;1.92;;;;;;;;;;5113071;27;20228;-16
2022/04/04 12:48:13;;;;;;;7.22;2.08;;;;;;;;;;5107129;27;20273;-16
2022/04/04 12:50:41;;;;;;;2.03;1.60;;;;;;;;;;5111435;27;20233;-16
2022/04/04 12:53:08;;;;;;;3.78;1.50;;;;;;;;;;5111580;27;20659;-16
2022/04/04 12:55:36;;;;;;;2.80;1.60;;;;;;;;;;5106955;27;20242;-16
2022/04/04 12:58:18;;;;;;;3.97;1.52;;;;;;;;;;5109012;27;20234;-16
2022/04/04 13:00:46;;;;;;;2.33;1.50;;;;;;;;;;5108215;27;20244;-16
2022/04/04 13:03:22;;;;;;;2.60;1.50;;;;;;;;;;5106290;28;20283;-16
2022/04/04 13:05:50;;;;;;;2.28;1.50;;;;;;;;;;5108056;27;20231;-16
2022/04/04 13:08:18;;;;;;;2.05;1.55;;;;;;;;;;5108881;27;20236;-16
2022/04/04 13:11:00;;;;;;;2.78;1.38;;;;;;;;;;5108740;27;20422;-16
2022/04/04 13:13:29;;;;;;;3.10;1.02;;;;;;;;;;5107525;27;20242;-15
2022/04/04 13:15:56;;;;;;;4.20;1.23;;;;;;;;;;5110484;27;20749;-16
2022/04/04 13:18:43;;;;;;;1.55;1.00;;;;;;;;;;5106862;27;20233;-16
2022/04/04 13:21:10;;;;;;;2.55;1.40;;;;;;;;;;5112010;27;20246;-16
2022/04/04 13:23:38;;;;;;;3.20;1.15;;;;;;;;;;5109456;27;20234;-16
2022/04/04 13:26:05;;;;;;;3.33;0.98;;;;;;;;;;5115938;27;20238;-16
2022/04/04 13:28:34;;;;;;;2.17;0.93;;;;;;;;;;5113572;27;20232;-16
2022/04/04 13:31:02;;;;;;;5.20;1.00;;;;;;;;;;5115859;27;20237;-16
2022/04/04 13:33:29;;;;;;;4.00;0.90;;;;;;;;;;5111218;27;20438;-16
2022/04/04 13:35:57;;;;;;;10.88;1.10;;;;;;;;;;5106730;27;20305;-17
2022/04/04 13:38:26;;;;;;;7.28;1.60;;;;;;;;;;5119674;27;20882;-16
2022/04/04 13:40:54;;;;;;;3.05;1.20;;;;;;;;;;5116787;27;20236;-16
2022/04/04 13:43:21;;;;;;;4.68;1.48;;;;;;;;;;5114761;27;20599;-16
2022/04/04 13:45:51;;;;;;;2.72;1.05;;;;;;;;;;5112062;27;20228;-16
2022/04/04 13:48:19;;;;;;;2.20;1.35;;;;;;;;;;5110165;27;20240;-16
2022/04/04 13:50:46;;;;;;;2.78;0.80;;;;;;;;;;5114756;27;20281;-16
2022/04/04 13:53:14;;;;;;;1.40;0.80;;;;;;;;;;5118651;27;20241;-16
2022/04/04 13:55:41;;;;;;;2.45;0.90;;;;;;;;;;5113212;27;20955;-16
2022/04/04 13:58:08;;;;;;;1.80;1.02;;;;;;;;;;5107543;27;20239;-16
2022/04/04 14:00:36;;;;;;;7.22;0.80;;;;;;;;;;5112462;27;20224;-16
2022/04/04 14:03:05;;;;;;;2.50;1.00;;;;;;;;;;5110989;27;20272;-16
2022/04/04 14:05:32;;;;;;;2.20;0.70;;;;;;;;;;5114888;27;20319;-16
2022/04/04 14:08:14;;;;;;;0.98;0.77;;;;;;;;;;5107515;27;20236;-16
2022/04/04 14:10:46;;;;;;;1.92;0.90;;;;;;;;;;5111558;28;20260;-16
2022/04/04 14:13:13;;;;;;;1.27;0.85;;;;;;;;;;5113133;27;20235;-16
2022/04/04 14:15:41;;;;;;;0.70;0.50;;;;;;;;;;5111265;27;20319;-16
2022/04/04 14:18:10;;;;;;;4.60;0.85;;;;;;;;;;5115056;27;20236;-16
2022/04/04 14:20:38;;;;;;;0.95;0.80;;;;;;;;;;5109892;27;20232;-16
2022/04/04 14:23:06;;;;;;;1.85;0.70;;;;;;;;;;5115195;27;20614;-16
2022/04/04 14:25:33;;;;;;;4.72;0.70;;;;;;;;;;5109247;28;20236;-16
2022/04/04 14:28:00;;;;;;;4.57;0.73;;;;;;;;;;5116251;27;20239;-17
2022/04/04 14:30:28;;;;;;;3.22;0.70;;;;;;;;;;5108287;27;20253;-16
2022/04/04 14:32:55;;;;;;;2.95;0.82;;;;;;;;;;5111429;28;21012;-16
2022/04/04 14:35:24;;;;;;;1.92;0.80;;;;;;;;;;5109802;27;20236;-17
2022/04/04 14:37:51;;;;;;;2.00;0.60;;;;;;;;;;5114523;27;20231;-16
2022/04/04 14:40:19;;;;;;;3.72;0.68;;;;;;;;;;5115320;27;20232;-16
2022/04/04 14:42:46;;;;;;;0.82;0.60;;;;;;;;;;5111391;27;20244;-16
2022/04/04 14:45:14;;;;;;;1.67;0.73;;;;;;;;;;5115979;27;20583;-16
2022/04/04 14:47:41;;;;;;;0.93;0.70;;;;;;;;;;5113906;27;20243;-16
2022/04/04 14:50:09;;;;;;;4.00;0.70;;;;;;;;;;5113209;27;20417;-16
2022/04/04 14:52:39;;;;;;;1.75;1.05;;;;;;;;;;5112403;27;20334;-16
2022/04/04 14:55:08;;;;;;;2.42;0.90;;;;;;;;;;5120473;27;20231;-16
2022/04/04 14:57:35;;;;;;;5.88;0.80;;;;;;;;;;5112468;27;20784;-17
2022/04/04 15:00:02;;;;;;;3.92;1.10;;;;;;;;;;5115191;27;20243;-17
2022/04/04 15:02:30;;;;;;;2.58;0.80;;;;;;;;;;5114249;27;20275;-16